Terminal Aerodrome Forecast
Issued by NWS

Current Version | Previous Version | Graphics & Text | Print | Product List | Glossary On
Versions: 1 2 3 4 5 6 7 8 9 10 11 12 13 14 15 16 17
000
FTUS41 KILN 301400 AAA
TAFLCK
TAF AMD
KLCK 301445Z 3015/3112 23007KT P6SM VCSH SCT025 BKN100
     FM301800 26010KT P6SM VCTS BKN040CB
      TEMPO 3018/3021 5SM -TSRA BR OVC025CB
     FM310000 22003KT P6SM SCT080=

USA.gov is the U.S. government's official web portal to all federal, state and local government web resources and services.